North Lakhimpur

Current Flights

Departures
Number Departure To Airline
 9I734 10:30 +8  Guwahati  Alliance Air
 CD734 10:30 +8  Guwahati  Alliance Air
 SG3346 12:55  Guwahati  SpiceJet
 9I734 10:30  Guwahati  Alliance Air
 CD734 10:30  Guwahati  Alliance Air
 SG3346 12:55  Guwahati  SpiceJet
Arrivals
Number Arrival From Airline
 CD733 10:10 +28  Pasighat  Alliance Air
 SG3345 12:35  Guwahati  SpiceJet
 9I733 10:10  Pasighat  Alliance Air
 CD733 10:10  Pasighat  Alliance Air
 SG3345 12:35  Guwahati  SpiceJet
Info
Name: North Lakhimpur
Identifier:  IXI/VELR
Local Time:  18. Jun 10:37
City
Lilabari
  India

Flights per Day
2 flights
Distance: 248km (154mi)
Punctuality
86% (0 flights per day delayed)
Delay Average: 26 minutes
Current Weather
 26 C (Humidity: 94%)
  4kt (7km/h / 4mph) from 50°
  Scattered clouds at 1,800 feet (548 meter)
  Scattered clouds at 10,000 feet (3,048 meter)
  4km (2 mi.)
 Mist
 METAR VELR 180430Z 05004KT 4000 BR SCT018 SCT100 26/25 Q1003

Current Delays

Departures
N/A
Arrivals
N/A

Destinations

Top Destinations
Airport Flights
per week
Seats
per week
  Guwahati (GAU) 3 98 0 14

Airlines & Planes

Top Airlines
Airline Flights
per Day
Seats
per Day
  Alliance Air 0 -
  Alliance Airlines 0 14
Top Plane Types
Model Flights Seats
ATR 76-600 0.5/day 14/day 14